KLTS/LTS METAR and TAF weather

Enter ICAO airport designator
Station Type Date Time Source
KLTS METAR 2022/01/29 11:56 UTC NOAA

KLTS 291156Z AUTO 26004KT 10SM CLR M03/M08 A3028 RMK AO2 SLP261 T10341083 10015 21048 57009 $


Station Type Date Time Source
KLTS Decoded METAR 2022/01/29 11:56 UTC NOAA

Altus Air Force Base, OK, United States (KLTS) 34-39N 099-16W 420M
Jan 29, 2022 - 06:56 AM EST / 2022.01.29 1156 UTC
Wind: from the W (260 degrees) at 5 MPH (4 KT):0
Visibility: 10 mile(s):0
Sky conditions: clear
Temperature: 25.9 F (-3.4 C)
Windchill: 19 F (-7 C):1
Dew Point: 17.1 F (-8.3 C)
Relative Humidity: 68%
Pressure (altimeter): 30.28 in. Hg (1025 hPa)
Pressure tendency: 0.03 inches (0.9 hPa) lower than three hours ago
ob: KLTS 291156Z AUTO 26004KT 10SM CLR M03/M08 A3028 RMK AO2 SLP261 T10341083 10015 21048 57009
cycle: 12

Station Type Date Time Source
KLTS TAF 2022/01/29 07:44 UTC NOAA

TAF
AMD KLTS 290720Z 2907/3007 VRB06KT 9999 SKC QNH3020INS
BECMG 2916/2917 26012G20KT 9999 SKC QNH3002INS
BECMG 2922/2923 VRB06KT 9999 SKC QNH3003INS TX22/2921Z TNM04/2912Z LAST NO
AMDS AFT 2907 NEXT 3109

Example: see airport list